Hovedside
METAR-TAF:

METAR-TAF

Lufthavner :

Svalbard lufthavn. Longyear

Longyearbyen, Norge

breddegrad: 78-15N, lengdegrad: 015-28E, høyde over havet: 2 m

Gjeldene værobservasjon

Denne rapporten ble laget for 1 time og 16 minutter siden, klokken 03:50 UTC
Vind 13 kt fra Øst
Temperatur 0°C
Luftfuktighet 64%
Trykk 1005 hPa
Sikt 10 km eller mer
Brutte skyer i en høyde av 3000 ft

METAR: ENSB 210350Z 08013KT 9999 BKN030 00/M06 Q1005 RMK WIND 1400FT 08015KT

Tid: 07:06 (05:06 UTC)

Varsel

Varsel gyldig fra 21. klokken 03 UTC til 21. klokken 24 UTC
Vind 15 kt fra Øst-sørøst
Sikt 10 km eller mer
Få skyer i en høyde av 1500 ft
Spredte skyer i en høyde av 3000 ft
Midlertidig
fra 21. klokken 03 UTC til 21. klokken 18 UTC
Vind 20 kt fra Øst-sørøst med vindkast opp mot 30 kt

TAF: ENSB 2103/2124 11015KT 9999 FEW015 SCT030 TEMPO 2103/2118 12020G30KT

Værobservasjoner og værvarsel for over 4000 flyplasser (METAR- og TAF-rapporter).

Tilgjengelige stasjoner er representert av de røde og gule prikkene på kartet.

Hold musepekeren over prikken for å se navnet på stasjonen.

Klikk så for å se værobservasjoner og -varsler.

For å forandre kartet kan du klikke på den grønne knappen med svart kryss for å zoome inn, på den grønne knappen med strek for å zoome ut, eller på de grønne pilene for å se tilstøtende kart.


METAR-TAF: